createdAt,value
2019-04-04T00:00:07.156Z,6.43
2019-04-04T00:05:13.222Z,6.87
2019-04-04T00:10:19.393Z,6.97
2019-04-04T00:15:23.944Z,6.80
2019-04-04T00:20:31.507Z,4.43
2019-04-04T00:25:36.093Z,5.80
2019-04-04T00:30:40.653Z,5.87
2019-04-04T00:35:46.632Z,6.40
2019-04-04T00:40:51.187Z,5.73
2019-04-04T00:45:57.134Z,5.20
2019-04-04T00:51:01.665Z,5.80
2019-04-04T00:56:07.710Z,4.40
2019-04-04T01:01:12.252Z,4.63
2019-04-04T01:06:18.077Z,5.47
2019-04-04T01:11:22.630Z,4.47
2019-04-04T01:16:28.297Z,3.93
2019-04-04T01:21:32.813Z,4.50
2019-04-04T01:26:38.606Z,4.50
2019-04-04T01:31:44.089Z,4.07
2019-04-04T01:36:51.157Z,4.03
2019-04-04T01:41:55.709Z,3.97
2019-04-04T01:47:01.453Z,3.80
2019-04-04T01:52:06.057Z,4.30
2019-04-04T01:57:12.009Z,3.70
2019-04-04T02:02:18.483Z,3.73
2019-04-04T02:07:24.516Z,4.00
2019-04-04T02:12:29.095Z,3.23
2019-04-04T02:17:34.273Z,3.60
2019-04-04T02:22:38.812Z,3.53
2019-04-04T02:27:43.585Z,3.40
2019-04-04T02:32:48.222Z,4.00
2019-04-04T02:37:55.524Z,2.80
2019-04-04T02:43:00.374Z,3.17
2019-04-04T02:48:04.959Z,3.40
2019-04-04T02:53:09.586Z,3.27
2019-04-04T02:58:15.424Z,3.40
2019-04-04T03:03:20.161Z,3.67
2019-04-04T03:08:24.793Z,3.77
2019-04-04T03:13:32.229Z,3.33
2019-04-04T03:18:37.222Z,4.10
2019-04-04T03:23:41.834Z,3.77
2019-04-04T03:28:46.526Z,3.53
2019-04-04T03:33:51.060Z,3.50
2019-04-04T03:38:55.658Z,4.10
2019-04-04T03:44:00.351Z,4.00
2019-04-04T03:49:04.901Z,3.87
2019-04-04T03:54:13.537Z,3.57
2019-04-04T03:59:18.080Z,3.83
2019-04-04T04:04:27.032Z,4.03
2019-04-04T04:09:30.723Z,4.30
2019-04-04T04:14:35.350Z,4.00
2019-04-04T04:19:40.070Z,3.37
2019-04-04T04:24:44.627Z,4.27
2019-04-04T04:29:49.173Z,3.70
2019-04-04T04:34:53.715Z,4.10
2019-04-04T04:39:58.268Z,4.07
2019-04-04T04:45:02.916Z,3.50
2019-04-04T04:50:09.620Z,4.10
2019-04-04T04:55:13.808Z,4.23
2019-04-04T05:00:18.346Z,4.30
2019-04-04T05:05:22.944Z,4.27
2019-04-04T05:10:27.520Z,3.87
2019-04-04T05:15:32.295Z,3.97
2019-04-04T05:20:37.749Z,3.97
2019-04-04T05:25:52.120Z,4.20
2019-04-04T05:30:48.663Z,3.40
2019-04-04T05:35:53.354Z,4.17
2019-04-04T05:40:57.982Z,4.13
2019-04-04T05:46:03.705Z,4.30
2019-04-04T05:51:08.306Z,5.17
2019-04-04T05:56:15.126Z,3.97
2019-04-04T06:01:19.734Z,4.33
2019-04-04T06:06:24.811Z,4.03
2019-04-04T06:11:29.333Z,5.40
2019-04-04T06:16:35.010Z,4.83
2019-04-04T06:21:40.276Z,5.00
2019-04-04T06:26:46.178Z,4.87
2019-04-04T06:31:50.744Z,4.80
2019-04-04T06:36:56.622Z,5.47
2019-04-04T06:42:04.061Z,7.97
2019-04-04T06:47:10.116Z,8.13
2019-04-04T06:52:16.330Z,7.60
2019-04-04T06:57:22.450Z,8.27
2019-04-04T07:02:27.086Z,8.10
2019-04-04T07:07:33.157Z,7.87
2019-04-04T07:12:38.685Z,8.30
2019-04-04T07:17:43.437Z,8.10
2019-04-04T07:22:48.082Z,6.30
2019-04-04T07:27:54.036Z,6.87
2019-04-04T07:32:58.642Z,6.60
2019-04-04T07:38:06.552Z,7.67
2019-04-04T07:43:11.091Z,8.00
2019-04-04T07:48:18.489Z,6.97
2019-04-04T07:53:24.422Z,7.03
2019-04-04T07:58:30.513Z,8.20
2019-04-04T08:03:36.151Z,8.83
2019-04-04T08:08:42.210Z,7.10
2019-04-04T08:13:46.761Z,7.63
2019-04-04T08:18:51.313Z,8.33
2019-04-04T08:23:55.918Z,8.27
2019-04-04T08:29:01.864Z,8.13
2019-04-04T08:34:06.412Z,7.70
2019-04-04T08:39:12.617Z,7.13
2019-04-04T08:44:17.179Z,9.17
2019-04-04T08:49:23.118Z,7.00
2019-04-04T08:54:27.658Z,6.03
2019-04-04T08:59:33.706Z,4.93
2019-04-04T09:04:38.361Z,6.60
2019-04-04T09:09:44.563Z,6.00
2019-04-04T09:14:49.387Z,6.30
2019-04-04T09:19:54.084Z,4.10
2019-04-04T09:24:58.629Z,5.57
2019-04-04T09:30:03.686Z,4.47
2019-04-04T09:35:08.292Z,2.47
2019-04-04T09:40:13.316Z,3.93
2019-04-04T09:45:17.862Z,2.77
2019-04-04T09:50:23.908Z,2.33
2019-04-04T09:55:28.447Z,2.33
2019-04-04T10:00:34.328Z,2.33
2019-04-04T10:05:38.929Z,2.53
2019-04-04T10:10:45.148Z,2.50
2019-04-04T10:15:49.689Z,2.17
2019-04-04T10:20:55.178Z,2.67
2019-04-04T10:25:59.746Z,1.77
2019-04-04T10:31:04.853Z,2.40
2019-04-04T10:36:09.439Z,2.23
2019-04-04T10:41:15.738Z,2.00
2019-04-04T10:46:21.352Z,2.50
2019-04-04T10:51:27.195Z,2.10
2019-04-04T10:56:31.717Z,2.53
2019-04-04T11:01:37.625Z,2.13
2019-04-04T11:06:42.218Z,2.30
2019-04-04T11:11:49.698Z,2.23
2019-04-04T11:16:54.261Z,0.97
2019-04-04T11:21:59.726Z,2.23
2019-04-04T11:27:06.258Z,1.93
2019-04-04T11:32:12.132Z,2.10
2019-04-04T11:37:16.683Z,2.00
2019-04-04T11:42:22.691Z,1.80
2019-04-04T11:47:27.213Z,2.10
2019-04-04T11:52:33.008Z,1.83
2019-04-04T11:57:37.643Z,1.60
2019-04-04T12:02:42.656Z,2.20
2019-04-04T12:07:57.315Z,2.20
2019-04-04T12:13:02.189Z,2.07
2019-04-04T12:18:06.722Z,2.60
2019-04-04T12:23:12.062Z,2.50
2019-04-04T12:28:16.659Z,2.10
2019-04-04T12:33:22.025Z,4.87
2019-04-04T12:38:26.630Z,6.20
2019-04-04T12:43:31.605Z,5.27
2019-04-04T12:48:36.249Z,5.07
2019-04-04T12:53:41.812Z,4.80
2019-04-04T12:58:46.352Z,4.20
2019-04-04T13:03:51.067Z,4.53
2019-04-04T13:08:55.663Z,3.27
2019-04-04T13:14:04.871Z,4.83
2019-04-04T13:19:09.528Z,3.40
2019-04-04T13:24:14.477Z,5.87
2019-04-04T13:29:21.227Z,8.20
2019-04-04T13:34:26.867Z,7.47
2019-04-04T13:39:31.503Z,9.87
2019-04-04T13:44:36.413Z,8.13
2019-04-04T13:49:42.186Z,7.13
2019-04-04T13:54:48.056Z,9.73
2019-04-04T13:59:52.826Z,10.67
2019-04-04T14:05:09.282Z,8.50
2019-04-04T14:10:04.386Z,8.60
2019-04-04T14:15:09.372Z,9.60
2019-04-04T14:20:13.898Z,6.83
2019-04-04T14:25:18.531Z,10.40
2019-04-04T14:30:24.962Z,10.23
2019-04-04T14:35:33.855Z,10.03
2019-04-04T14:40:39.842Z,11.50
2019-04-04T14:45:45.398Z,10.53
2019-04-04T14:50:53.815Z,11.27
2019-04-04T14:56:02.136Z,9.00
2019-04-04T15:01:10.463Z,9.97
2019-04-04T15:06:18.420Z,11.27
2019-04-04T15:11:24.310Z,11.93
2019-04-04T15:16:29.656Z,10.70
2019-04-04T15:21:34.401Z,10.87
2019-04-04T15:26:39.826Z,9.47
2019-04-04T15:31:44.673Z,11.20
2019-04-04T15:36:49.509Z,11.13
2019-04-04T15:41:54.462Z,9.50
2019-04-04T15:46:59.780Z,9.90
2019-04-04T15:52:05.501Z,9.70
2019-04-04T15:57:10.818Z,10.07
2019-04-04T16:02:15.401Z,10.00
2019-04-04T16:07:21.155Z,10.83
2019-04-04T16:12:26.257Z,9.63
2019-04-04T16:17:35.490Z,7.73
2019-04-04T16:22:41.317Z,8.83
2019-04-04T16:27:48.239Z,8.13
2019-04-04T16:32:53.250Z,7.00
2019-04-04T16:38:01.305Z,7.50
2019-04-04T16:43:15.376Z,5.50
2019-04-04T16:48:21.049Z,7.00
2019-04-04T16:53:25.693Z,8.20
2019-04-04T16:58:30.425Z,7.83
2019-04-04T17:03:35.119Z,7.10
2019-04-04T17:08:39.716Z,7.07
2019-04-04T17:13:44.389Z,7.00
2019-04-04T17:18:49.090Z,6.70
2019-04-04T17:23:53.741Z,8.70
2019-04-04T17:28:58.365Z,7.27
2019-04-04T17:34:03.236Z,6.87
2019-04-04T17:39:08.745Z,7.20
2019-04-04T17:44:13.546Z,6.90
2019-04-04T17:49:18.179Z,6.80
2019-04-04T17:54:22.708Z,6.83
2019-04-04T17:59:30.219Z,7.13
2019-04-04T18:04:34.799Z,6.60
2019-04-04T18:09:41.500Z,5.97
2019-04-04T18:14:45.781Z,4.97
2019-04-04T18:19:50.311Z,5.23
2019-04-04T18:24:54.866Z,5.87
2019-04-04T18:29:59.544Z,6.00
2019-04-04T18:35:04.853Z,5.27
2019-04-04T18:40:09.630Z,5.33
2019-04-04T18:45:14.256Z,6.13
2019-04-04T18:50:18.891Z,3.67
2019-04-04T18:55:23.593Z,6.13
2019-04-04T19:00:28.158Z,6.43
2019-04-04T19:05:32.740Z,6.07
2019-04-04T19:10:37.267Z,6.30
2019-04-04T19:15:41.953Z,7.80
2019-04-04T19:20:46.521Z,6.90
2019-04-04T19:25:51.166Z,7.47
2019-04-04T19:30:58.481Z,6.87
2019-04-04T19:36:03.116Z,7.33
2019-04-04T19:41:07.879Z,7.80
2019-04-04T19:46:13.046Z,7.10
2019-04-04T19:51:19.257Z,6.30
2019-04-04T19:56:24.345Z,6.57
2019-04-04T20:01:29.011Z,6.60
2019-04-04T20:06:34.237Z,4.70
2019-04-04T20:11:38.863Z,5.73
2019-04-04T20:16:43.726Z,6.53
2019-04-04T20:21:48.344Z,8.67
2019-04-04T20:26:53.092Z,8.87
2019-04-04T20:31:57.659Z,9.20
2019-04-04T20:37:03.076Z,7.63
2019-04-04T20:42:07.625Z,8.63
2019-04-04T20:47:13.130Z,8.07
2019-04-04T20:52:17.675Z,9.77
2019-04-04T20:57:22.634Z,7.17
2019-04-04T21:02:27.179Z,7.70
2019-04-04T21:07:32.393Z,8.13
2019-04-04T21:12:36.947Z,6.40
2019-04-04T21:17:42.170Z,9.07
2019-04-04T21:22:46.724Z,7.83
2019-04-04T21:27:52.674Z,7.60
2019-04-04T21:32:57.277Z,7.47
2019-04-04T21:38:01.914Z,6.40
2019-04-04T21:43:06.484Z,6.67
2019-04-04T21:48:11.101Z,6.43
2019-04-04T21:53:15.665Z,6.20
2019-04-04T21:58:20.496Z,5.73
2019-04-04T22:03:25.136Z,6.57
2019-04-04T22:08:29.689Z,5.93
2019-04-04T22:13:35.147Z,6.50
2019-04-04T22:18:39.694Z,5.93
2019-04-04T22:23:44.295Z,5.43
2019-04-04T22:28:49.886Z,4.97
2019-04-04T22:33:55.317Z,4.90
2019-04-04T22:38:59.927Z,5.50
2019-04-04T22:44:05.505Z,5.13
2019-04-04T22:49:10.043Z,5.17
2019-04-04T22:54:15.054Z,5.10
2019-04-04T22:59:19.608Z,4.37
2019-04-04T23:04:24.321Z,4.57
2019-04-04T23:09:28.870Z,4.47
2019-04-04T23:14:46.929Z,3.57
2019-04-04T23:19:40.019Z,3.80
2019-04-04T23:24:46.609Z,3.40
2019-04-04T23:29:50.881Z,3.90
2019-04-04T23:34:55.918Z,3.10
2019-04-04T23:40:00.477Z,3.60
2019-04-04T23:45:06.106Z,3.20
2019-04-04T23:50:10.711Z,3.27
2019-04-04T23:55:15.354Z,3.20
